sensor_id;sensor_type;location;lat;lon;timestamp;temperature;humidity
6948;DHT22;3513;47.664;9.162;2023-11-21T00:00:55;8.40;99.80
6948;DHT22;3513;47.664;9.162;2023-11-21T00:03:20;8.30;99.90
6948;DHT22;3513;47.664;9.162;2023-11-21T00:05:48;8.20;99.90
6948;DHT22;3513;47.664;9.162;2023-11-21T00:08:14;8.20;99.90
6948;DHT22;3513;47.664;9.162;2023-11-21T00:10:40;8.10;99.90
6948;DHT22;3513;47.664;9.162;2023-11-21T00:13:05;8.10;99.90
6948;DHT22;3513;47.664;9.162;2023-11-21T00:15:31;8.10;99.90
6948;DHT22;3513;47.664;9.162;2023-11-21T00:17:57;8.00;99.90
6948;DHT22;3513;47.664;9.162;2023-11-21T00:20:22;8.10;99.90
6948;DHT22;3513;47.664;9.162;2023-11-21T00:22:48;8.00;99.90
6948;DHT22;3513;47.664;9.162;2023-11-21T00:25:13;8.10;99.90
6948;DHT22;3513;47.664;9.162;2023-11-21T00:27:41;8.10;99.90
6948;DHT22;3513;47.664;9.162;2023-11-21T00:30:07;8.00;99.90
6948;DHT22;3513;47.664;9.162;2023-11-21T00:32:36;8.00;99.90
6948;DHT22;3513;47.664;9.162;2023-11-21T00:35:02;8.00;99.90
6948;DHT22;3513;47.664;9.162;2023-11-21T00:37:28;8.00;99.90
6948;DHT22;3513;47.664;9.162;2023-11-21T00:39:53;7.90;99.90
6948;DHT22;3513;47.664;9.162;2023-11-21T00:42:19;8.00;99.90
6948;DHT22;3513;47.664;9.162;2023-11-21T00:44:44;8.00;99.90
6948;DHT22;3513;47.664;9.162;2023-11-21T00:47:10;8.00;99.90
6948;DHT22;3513;47.664;9.162;2023-11-21T00:49:36;8.00;99.90
6948;DHT22;3513;47.664;9.162;2023-11-21T00:52:02;8.00;99.90
6948;DHT22;3513;47.664;9.162;2023-11-21T00:54:28;8.00;99.90
6948;DHT22;3513;47.664;9.162;2023-11-21T00:56:54;8.10;99.90
6948;DHT22;3513;47.664;9.162;2023-11-21T00:59:19;8.10;99.90
6948;DHT22;3513;47.664;9.162;2023-11-21T01:01:45;8.10;99.90
6948;DHT22;3513;47.664;9.162;2023-11-21T01:04:10;8.10;99.90
6948;DHT22;3513;47.664;9.162;2023-11-21T01:06:36;8.10;99.90
6948;DHT22;3513;47.664;9.162;2023-11-21T01:09:01;8.20;99.90
6948;DHT22;3513;47.664;9.162;2023-11-21T01:11:33;8.20;99.90
6948;DHT22;3513;47.664;9.162;2023-11-21T01:14:01;8.30;99.90
6948;DHT22;3513;47.664;9.162;2023-11-21T01:16:28;8.30;99.90
6948;DHT22;3513;47.664;9.162;2023-11-21T01:18:54;8.30;99.90
6948;DHT22;3513;47.664;9.162;2023-11-21T01:21:20;8.30;99.90
6948;DHT22;3513;47.664;9.162;2023-11-21T01:23:45;8.20;99.90
6948;DHT22;3513;47.664;9.162;2023-11-21T01:26:11;8.20;99.90
6948;DHT22;3513;47.664;9.162;2023-11-21T01:28:37;8.20;99.90
6948;DHT22;3513;47.664;9.162;2023-11-21T01:31:02;8.00;99.90
6948;DHT22;3513;47.664;9.162;2023-11-21T01:33:28;8.00;99.90
6948;DHT22;3513;47.664;9.162;2023-11-21T01:35:53;7.90;99.90
6948;DHT22;3513;47.664;9.162;2023-11-21T01:38:20;7.90;99.90
6948;DHT22;3513;47.664;9.162;2023-11-21T01:40:46;7.90;99.90
6948;DHT22;3513;47.664;9.162;2023-11-21T01:43:11;8.00;99.90
6948;DHT22;3513;47.664;9.162;2023-11-21T01:45:37;8.00;99.90
6948;DHT22;3513;47.664;9.162;2023-11-21T01:48:03;8.20;99.90
6948;DHT22;3513;47.664;9.162;2023-11-21T01:50:29;8.20;99.90
6948;DHT22;3513;47.664;9.162;2023-11-21T01:52:55;8.40;99.90
6948;DHT22;3513;47.664;9.162;2023-11-21T01:55:21;8.40;99.90
6948;DHT22;3513;47.664;9.162;2023-11-21T01:57:47;8.30;99.90
6948;DHT22;3513;47.664;9.162;2023-11-21T02:00:13;8.30;99.90
6948;DHT22;3513;47.664;9.162;2023-11-21T02:02:45;8.20;99.90
6948;DHT22;3513;47.664;9.162;2023-11-21T02:05:12;8.10;99.90
6948;DHT22;3513;47.664;9.162;2023-11-21T02:07:42;8.30;99.90
6948;DHT22;3513;47.664;9.162;2023-11-21T02:10:13;8.30;99.90
6948;DHT22;3513;47.664;9.162;2023-11-21T02:12:43;8.30;99.90
6948;DHT22;3513;47.664;9.162;2023-11-21T02:15:13;8.30;99.90
6948;DHT22;3513;47.664;9.162;2023-11-21T02:17:46;8.20;99.90
6948;DHT22;3513;47.664;9.162;2023-11-21T02:20:20;8.40;99.90
6948;DHT22;3513;47.664;9.162;2023-11-21T02:22:56;8.40;99.90
6948;DHT22;3513;47.664;9.162;2023-11-21T02:25:26;8.40;99.90
6948;DHT22;3513;47.664;9.162;2023-11-21T02:27:53;8.30;99.90
6948;DHT22;3513;47.664;9.162;2023-11-21T02:30:20;8.30;99.90
6948;DHT22;3513;47.664;9.162;2023-11-21T02:32:47;8.30;99.90
6948;DHT22;3513;47.664;9.162;2023-11-21T02:35:14;8.30;99.90
6948;DHT22;3513;47.664;9.162;2023-11-21T02:37:41;8.20;99.90
6948;DHT22;3513;47.664;9.162;2023-11-21T02:40:09;8.30;99.90
6948;DHT22;3513;47.664;9.162;2023-11-21T02:42:35;8.30;99.90
6948;DHT22;3513;47.664;9.162;2023-11-21T02:45:00;8.30;99.90
6948;DHT22;3513;47.664;9.162;2023-11-21T02:47:26;8.30;99.90
6948;DHT22;3513;47.664;9.162;2023-11-21T02:49:52;8.30;99.90
6948;DHT22;3513;47.664;9.162;2023-11-21T02:52:18;8.20;99.90
6948;DHT22;3513;47.664;9.162;2023-11-21T02:54:44;8.20;99.90
6948;DHT22;3513;47.664;9.162;2023-11-21T02:57:10;8.10;99.90
6948;DHT22;3513;47.664;9.162;2023-11-21T02:59:35;8.10;99.90
6948;DHT22;3513;47.664;9.162;2023-11-21T03:02:01;8.00;99.90
6948;DHT22;3513;47.664;9.162;2023-11-21T03:04:27;7.90;99.90
6948;DHT22;3513;47.664;9.162;2023-11-21T03:06:52;7.90;99.90
6948;DHT22;3513;47.664;9.162;2023-11-21T03:09:18;7.80;99.90
6948;DHT22;3513;47.664;9.162;2023-11-21T03:11:43;7.80;99.90
6948;DHT22;3513;47.664;9.162;2023-11-21T03:14:09;7.80;99.90
6948;DHT22;3513;47.664;9.162;2023-11-21T03:16:36;7.70;99.90
6948;DHT22;3513;47.664;9.162;2023-11-21T03:19:04;7.60;99.90
6948;DHT22;3513;47.664;9.162;2023-11-21T03:21:30;7.60;99.90
6948;DHT22;3513;47.664;9.162;2023-11-21T03:23:56;7.50;99.90
6948;DHT22;3513;47.664;9.162;2023-11-21T03:26:21;7.50;99.90
6948;DHT22;3513;47.664;9.162;2023-11-21T03:28:47;7.50;99.90
6948;DHT22;3513;47.664;9.162;2023-11-21T03:31:12;7.60;99.90
6948;DHT22;3513;47.664;9.162;2023-11-21T03:33:38;7.60;99.90
6948;DHT22;3513;47.664;9.162;2023-11-21T03:36:04;7.60;99.90
6948;DHT22;3513;47.664;9.162;2023-11-21T03:38:29;7.60;99.90
6948;DHT22;3513;47.664;9.162;2023-11-21T03:40:55;7.60;99.90
6948;DHT22;3513;47.664;9.162;2023-11-21T03:43:20;7.60;99.90
6948;DHT22;3513;47.664;9.162;2023-11-21T03:45:46;7.60;99.90
6948;DHT22;3513;47.664;9.162;2023-11-21T03:48:12;7.50;99.90
6948;DHT22;3513;47.664;9.162;2023-11-21T03:50:38;7.50;99.90
6948;DHT22;3513;47.664;9.162;2023-11-21T03:53:04;7.30;99.90
6948;DHT22;3513;47.664;9.162;2023-11-21T03:55:29;7.40;99.90
6948;DHT22;3513;47.664;9.162;2023-11-21T03:57:57;7.50;99.90
6948;DHT22;3513;47.664;9.162;2023-11-21T04:00:23;7.50;99.90
6948;DHT22;3513;47.664;9.162;2023-11-21T04:02:49;7.50;99.90
6948;DHT22;3513;47.664;9.162;2023-11-21T04:05:16;7.50;99.90
6948;DHT22;3513;47.664;9.162;2023-11-21T04:07:42;7.40;99.90
6948;DHT22;3513;47.664;9.162;2023-11-21T04:10:08;7.40;99.90
6948;DHT22;3513;47.664;9.162;2023-11-21T04:12:35;7.40;99.90
6948;DHT22;3513;47.664;9.162;2023-11-21T04:15:01;7.50;99.90
6948;DHT22;3513;47.664;9.162;2023-11-21T04:17:26;7.30;99.90
6948;DHT22;3513;47.664;9.162;2023-11-21T04:19:52;7.30;99.90
6948;DHT22;3513;47.664;9.162;2023-11-21T04:22:17;7.30;99.90
6948;DHT22;3513;47.664;9.162;2023-11-21T04:24:43;7.20;99.90
6948;DHT22;3513;47.664;9.162;2023-11-21T04:27:08;7.20;99.90
6948;DHT22;3513;47.664;9.162;2023-11-21T04:29:34;7.10;99.90
6948;DHT22;3513;47.664;9.162;2023-11-21T04:32:00;7.20;99.90
6948;DHT22;3513;47.664;9.162;2023-11-21T04:34:26;7.10;99.90
6948;DHT22;3513;47.664;9.162;2023-11-21T04:36:52;7.30;99.90
6948;DHT22;3513;47.664;9.162;2023-11-21T04:39:17;7.30;99.90
6948;DHT22;3513;47.664;9.162;2023-11-21T04:41:43;7.30;99.90
6948;DHT22;3513;47.664;9.162;2023-11-21T04:44:08;7.30;99.90
6948;DHT22;3513;47.664;9.162;2023-11-21T04:46:34;7.30;99.90
6948;DHT22;3513;47.664;9.162;2023-11-21T04:48:59;7.40;99.90
6948;DHT22;3513;47.664;9.162;2023-11-21T04:51:25;7.40;99.90
6948;DHT22;3513;47.664;9.162;2023-11-21T04:53:50;7.50;99.90
6948;DHT22;3513;47.664;9.162;2023-11-21T04:56:16;7.50;99.90
6948;DHT22;3513;47.664;9.162;2023-11-21T04:58:42;7.40;99.90
6948;DHT22;3513;47.664;9.162;2023-11-21T05:01:08;7.50;99.90
6948;DHT22;3513;47.664;9.162;2023-11-21T05:03:33;7.50;99.90
6948;DHT22;3513;47.664;9.162;2023-11-21T05:06:02;7.60;99.90
6948;DHT22;3513;47.664;9.162;2023-11-21T05:08:30;7.60;99.90
6948;DHT22;3513;47.664;9.162;2023-11-21T05:10:56;7.60;99.90
6948;DHT22;3513;47.664;9.162;2023-11-21T05:13:22;7.60;99.90
6948;DHT22;3513;47.664;9.162;2023-11-21T05:15:53;7.60;99.90
6948;DHT22;3513;47.664;9.162;2023-11-21T05:18:19;7.60;99.90
6948;DHT22;3513;47.664;9.162;2023-11-21T05:20:45;7.60;99.90
6948;DHT22;3513;47.664;9.162;2023-11-21T05:23:10;7.60;99.90
6948;DHT22;3513;47.664;9.162;2023-11-21T05:25:36;7.60;99.90
6948;DHT22;3513;47.664;9.162;2023-11-21T05:28:01;7.60;99.90
6948;DHT22;3513;47.664;9.162;2023-11-21T05:30:28;7.70;99.90
6948;DHT22;3513;47.664;9.162;2023-11-21T05:32:53;7.70;99.90
6948;DHT22;3513;47.664;9.162;2023-11-21T05:35:19;7.70;99.90
6948;DHT22;3513;47.664;9.162;2023-11-21T05:37:45;7.60;99.90
6948;DHT22;3513;47.664;9.162;2023-11-21T05:40:11;7.70;99.90
6948;DHT22;3513;47.664;9.162;2023-11-21T05:42:39;7.70;99.90
6948;DHT22;3513;47.664;9.162;2023-11-21T05:45:06;7.70;99.90
6948;DHT22;3513;47.664;9.162;2023-11-21T05:47:43;7.70;99.90
6948;DHT22;3513;47.664;9.162;2023-11-21T05:50:10;7.70;99.90
6948;DHT22;3513;47.664;9.162;2023-11-21T05:52:38;7.70;99.90
6948;DHT22;3513;47.664;9.162;2023-11-21T05:55:04;7.70;99.90
6948;DHT22;3513;47.664;9.162;2023-11-21T05:57:35;7.70;99.90
6948;DHT22;3513;47.664;9.162;2023-11-21T06:00:08;7.70;99.90
6948;DHT22;3513;47.664;9.162;2023-11-21T06:02:39;7.70;99.90
6948;DHT22;3513;47.664;9.162;2023-11-21T06:05:08;7.70;99.90
6948;DHT22;3513;47.664;9.162;2023-11-21T06:07:35;7.70;99.90
6948;DHT22;3513;47.664;9.162;2023-11-21T06:10:02;7.60;99.90
6948;DHT22;3513;47.664;9.162;2023-11-21T06:12:30;7.60;99.90
6948;DHT22;3513;47.664;9.162;2023-11-21T06:14:56;7.70;99.90
6948;DHT22;3513;47.664;9.162;2023-11-21T06:17:22;7.60;99.90
6948;DHT22;3513;47.664;9.162;2023-11-21T06:19:49;7.70;99.90
6948;DHT22;3513;47.664;9.162;2023-11-21T06:22:15;7.70;99.90
6948;DHT22;3513;47.664;9.162;2023-11-21T06:24:41;7.70;99.90
6948;DHT22;3513;47.664;9.162;2023-11-21T06:27:07;7.70;99.90
6948;DHT22;3513;47.664;9.162;2023-11-21T06:29:33;7.70;99.90
6948;DHT22;3513;47.664;9.162;2023-11-21T06:31:59;7.70;99.90
6948;DHT22;3513;47.664;9.162;2023-11-21T06:34:24;7.70;99.90
6948;DHT22;3513;47.664;9.162;2023-11-21T06:36:50;7.70;99.90
6948;DHT22;3513;47.664;9.162;2023-11-21T06:39:16;7.70;99.90
6948;DHT22;3513;47.664;9.162;2023-11-21T06:41:43;7.70;99.90
6948;DHT22;3513;47.664;9.162;2023-11-21T06:44:08;7.70;99.90
6948;DHT22;3513;47.664;9.162;2023-11-21T06:46:34;7.70;99.90
6948;DHT22;3513;47.664;9.162;2023-11-21T06:48:59;7.70;99.90
6948;DHT22;3513;47.664;9.162;2023-11-21T06:51:25;7.70;99.90
6948;DHT22;3513;47.664;9.162;2023-11-21T06:53:50;7.70;99.90
6948;DHT22;3513;47.664;9.162;2023-11-21T06:56:19;7.70;99.90
6948;DHT22;3513;47.664;9.162;2023-11-21T06:58:48;7.70;99.90
6948;DHT22;3513;47.664;9.162;2023-11-21T07:01:14;7.70;99.90
6948;DHT22;3513;47.664;9.162;2023-11-21T07:03:41;7.70;99.90
6948;DHT22;3513;47.664;9.162;2023-11-21T07:06:07;7.70;99.90
6948;DHT22;3513;47.664;9.162;2023-11-21T07:08:33;7.70;99.90
6948;DHT22;3513;47.664;9.162;2023-11-21T07:10:58;7.70;99.90
6948;DHT22;3513;47.664;9.162;2023-11-21T07:13:24;7.70;99.90
6948;DHT22;3513;47.664;9.162;2023-11-21T07:15:49;7.70;99.90
6948;DHT22;3513;47.664;9.162;2023-11-21T07:18:15;7.70;99.90
6948;DHT22;3513;47.664;9.162;2023-11-21T07:20:40;7.70;99.90
6948;DHT22;3513;47.664;9.162;2023-11-21T07:23:06;7.80;99.90
6948;DHT22;3513;47.664;9.162;2023-11-21T07:25:32;7.70;99.90
6948;DHT22;3513;47.664;9.162;2023-11-21T07:27:59;7.80;99.90
6948;DHT22;3513;47.664;9.162;2023-11-21T07:30:25;7.70;99.90
6948;DHT22;3513;47.664;9.162;2023-11-21T07:32:51;7.60;99.90
6948;DHT22;3513;47.664;9.162;2023-11-21T07:35:16;7.60;99.90
6948;DHT22;3513;47.664;9.162;2023-11-21T07:37:42;7.70;99.90
6948;DHT22;3513;47.664;9.162;2023-11-21T07:40:08;7.70;99.90
6948;DHT22;3513;47.664;9.162;2023-11-21T07:42:34;7.60;99.90
6948;DHT22;3513;47.664;9.162;2023-11-21T07:45:00;7.60;99.90
6948;DHT22;3513;47.664;9.162;2023-11-21T07:47:26;7.60;99.90
6948;DHT22;3513;47.664;9.162;2023-11-21T07:49:53;7.60;99.90
6948;DHT22;3513;47.664;9.162;2023-11-21T07:52:21;7.70;99.90
6948;DHT22;3513;47.664;9.162;2023-11-21T07:54:47;7.70;99.90
6948;DHT22;3513;47.664;9.162;2023-11-21T07:57:12;7.70;99.90
6948;DHT22;3513;47.664;9.162;2023-11-21T07:59:39;7.80;99.90
6948;DHT22;3513;47.664;9.162;2023-11-21T08:02:06;7.80;99.90
6948;DHT22;3513;47.664;9.162;2023-11-21T08:04:32;7.90;99.90
6948;DHT22;3513;47.664;9.162;2023-11-21T08:06:58;7.90;99.90
6948;DHT22;3513;47.664;9.162;2023-11-21T08:09:23;8.00;99.90
6948;DHT22;3513;47.664;9.162;2023-11-21T08:11:49;8.10;99.90
6948;DHT22;3513;47.664;9.162;2023-11-21T08:14:15;8.30;99.90
6948;DHT22;3513;47.664;9.162;2023-11-21T08:16:41;8.30;99.90
6948;DHT22;3513;47.664;9.162;2023-11-21T08:19:06;8.30;99.90
6948;DHT22;3513;47.664;9.162;2023-11-21T08:21:34;8.30;99.90
6948;DHT22;3513;47.664;9.162;2023-11-21T08:23:59;8.30;99.90
6948;DHT22;3513;47.664;9.162;2023-11-21T08:26:25;8.20;99.90
6948;DHT22;3513;47.664;9.162;2023-11-21T08:28:51;8.30;99.90
6948;DHT22;3513;47.664;9.162;2023-11-21T08:31:28;8.30;99.90
6948;DHT22;3513;47.664;9.162;2023-11-21T08:33:54;8.40;99.90
6948;DHT22;3513;47.664;9.162;2023-11-21T08:36:21;8.50;99.90
6948;DHT22;3513;47.664;9.162;2023-11-21T08:38:48;8.60;99.90
6948;DHT22;3513;47.664;9.162;2023-11-21T08:41:14;8.50;99.90
6948;DHT22;3513;47.664;9.162;2023-11-21T08:43:40;8.60;99.90
6948;DHT22;3513;47.664;9.162;2023-11-21T08:46:06;8.60;99.90
6948;DHT22;3513;47.664;9.162;2023-11-21T08:48:35;8.70;99.90
6948;DHT22;3513;47.664;9.162;2023-11-21T08:51:01;8.70;99.90
6948;DHT22;3513;47.664;9.162;2023-11-21T08:53:26;8.70;99.90
6948;DHT22;3513;47.664;9.162;2023-11-21T08:55:52;8.80;99.90
6948;DHT22;3513;47.664;9.162;2023-11-21T08:58:19;8.80;99.90
6948;DHT22;3513;47.664;9.162;2023-11-21T09:00:44;8.80;99.90
6948;DHT22;3513;47.664;9.162;2023-11-21T09:03:12;8.90;99.90
6948;DHT22;3513;47.664;9.162;2023-11-21T09:05:38;8.90;99.90
6948;DHT22;3513;47.664;9.162;2023-11-21T09:08:04;8.90;99.90
6948;DHT22;3513;47.664;9.162;2023-11-21T09:10:30;8.90;99.90
6948;DHT22;3513;47.664;9.162;2023-11-21T09:12:56;8.90;99.90
6948;DHT22;3513;47.664;9.162;2023-11-21T09:15:22;9.00;99.90
6948;DHT22;3513;47.664;9.162;2023-11-21T09:17:48;9.00;99.90
6948;DHT22;3513;47.664;9.162;2023-11-21T09:20:14;9.10;99.90
6948;DHT22;3513;47.664;9.162;2023-11-21T09:22:40;9.00;99.90
6948;DHT22;3513;47.664;9.162;2023-11-21T09:25:06;9.00;99.90
6948;DHT22;3513;47.664;9.162;2023-11-21T09:27:34;9.00;99.90
6948;DHT22;3513;47.664;9.162;2023-11-21T09:30:01;9.00;99.90
6948;DHT22;3513;47.664;9.162;2023-11-21T09:32:26;9.00;99.90
6948;DHT22;3513;47.664;9.162;2023-11-21T09:34:52;9.00;99.90
6948;DHT22;3513;47.664;9.162;2023-11-21T09:37:20;9.10;99.90
6948;DHT22;3513;47.664;9.162;2023-11-21T09:39:46;9.20;99.90
6948;DHT22;3513;47.664;9.162;2023-11-21T09:42:13;9.20;99.90
6948;DHT22;3513;47.664;9.162;2023-11-21T09:44:54;9.10;99.90
6948;DHT22;3513;47.664;9.162;2023-11-21T09:47:23;9.10;99.90
6948;DHT22;3513;47.664;9.162;2023-11-21T09:49:48;9.20;99.90
6948;DHT22;3513;47.664;9.162;2023-11-21T09:52:25;9.10;99.90
6948;DHT22;3513;47.664;9.162;2023-11-21T09:54:52;9.10;99.90
6948;DHT22;3513;47.664;9.162;2023-11-21T09:57:20;9.10;99.90
6948;DHT22;3513;47.664;9.162;2023-11-21T09:59:47;9.10;99.90
6948;DHT22;3513;47.664;9.162;2023-11-21T10:02:17;9.10;99.90
6948;DHT22;3513;47.664;9.162;2023-11-21T10:04:44;9.10;99.90
6948;DHT22;3513;47.664;9.162;2023-11-21T10:07:12;9.10;99.90
6948;DHT22;3513;47.664;9.162;2023-11-21T10:09:40;9.00;99.90
6948;DHT22;3513;47.664;9.162;2023-11-21T10:12:07;9.10;99.90
6948;DHT22;3513;47.664;9.162;2023-11-21T10:14:37;9.10;99.90
6948;DHT22;3513;47.664;9.162;2023-11-21T10:17:04;9.20;99.90
6948;DHT22;3513;47.664;9.162;2023-11-21T10:19:31;9.30;99.90
6948;DHT22;3513;47.664;9.162;2023-11-21T10:21:58;9.30;99.90
6948;DHT22;3513;47.664;9.162;2023-11-21T10:24:25;9.30;99.90
6948;DHT22;3513;47.664;9.162;2023-11-21T10:26:51;9.40;99.90
6948;DHT22;3513;47.664;9.162;2023-11-21T10:29:19;9.40;99.90
6948;DHT22;3513;47.664;9.162;2023-11-21T10:31:51;9.50;99.90
6948;DHT22;3513;47.664;9.162;2023-11-21T10:34:20;9.50;99.90
6948;DHT22;3513;47.664;9.162;2023-11-21T10:36:47;9.50;99.90
6948;DHT22;3513;47.664;9.162;2023-11-21T10:39:20;9.50;99.90
6948;DHT22;3513;47.664;9.162;2023-11-21T10:41:49;9.50;99.90
6948;DHT22;3513;47.664;9.162;2023-11-21T10:44:17;9.50;99.90
6948;DHT22;3513;47.664;9.162;2023-11-21T10:46:48;9.50;99.90
6948;DHT22;3513;47.664;9.162;2023-11-21T10:49:17;9.50;99.90
6948;DHT22;3513;47.664;9.162;2023-11-21T10:51:44;9.50;99.90
6948;DHT22;3513;47.664;9.162;2023-11-21T10:54:09;9.60;99.90
6948;DHT22;3513;47.664;9.162;2023-11-21T10:56:36;9.60;99.90
6948;DHT22;3513;47.664;9.162;2023-11-21T10:59:09;9.60;99.90
6948;DHT22;3513;47.664;9.162;2023-11-21T11:01:36;9.60;99.90
6948;DHT22;3513;47.664;9.162;2023-11-21T11:04:05;9.60;99.90
6948;DHT22;3513;47.664;9.162;2023-11-21T11:06:32;9.70;99.90
6948;DHT22;3513;47.664;9.162;2023-11-21T11:08:59;9.90;99.90
6948;DHT22;3513;47.664;9.162;2023-11-21T11:11:28;10.00;99.90
6948;DHT22;3513;47.664;9.162;2023-11-21T11:13:55;10.10;99.90
6948;DHT22;3513;47.664;9.162;2023-11-21T11:16:22;10.20;99.90
6948;DHT22;3513;47.664;9.162;2023-11-21T11:18:50;10.40;99.90
6948;DHT22;3513;47.664;9.162;2023-11-21T11:21:23;10.40;98.90
6948;DHT22;3513;47.664;9.162;2023-11-21T11:32:22;9.70;99.90
6948;DHT22;3513;47.664;9.162;2023-11-21T11:35:10;9.50;99.90
6948;DHT22;3513;47.664;9.162;2023-11-21T11:37:35;9.30;99.90
6948;DHT22;3513;47.664;9.162;2023-11-21T11:40:06;9.10;99.90
6948;DHT22;3513;47.664;9.162;2023-11-21T11:42:32;9.00;99.90
6948;DHT22;3513;47.664;9.162;2023-11-21T11:44:58;9.00;99.90
6948;DHT22;3513;47.664;9.162;2023-11-21T11:47:32;8.90;99.90
6948;DHT22;3513;47.664;9.162;2023-11-21T11:50:09;8.80;99.90
6948;DHT22;3513;47.664;9.162;2023-11-21T11:52:49;8.80;99.90
6948;DHT22;3513;47.664;9.162;2023-11-21T11:55:21;8.80;99.90
6948;DHT22;3513;47.664;9.162;2023-11-21T11:57:52;8.80;99.90
6948;DHT22;3513;47.664;9.162;2023-11-21T12:02:59;8.50;99.90
6948;DHT22;3513;47.664;9.162;2023-11-21T12:05:28;8.50;99.90
6948;DHT22;3513;47.664;9.162;2023-11-21T12:07:55;8.40;99.90
6948;DHT22;3513;47.664;9.162;2023-11-21T12:10:27;8.40;99.90
6948;DHT22;3513;47.664;9.162;2023-11-21T12:13:01;8.40;99.90
6948;DHT22;3513;47.664;9.162;2023-11-21T12:15:27;8.50;99.90
6948;DHT22;3513;47.664;9.162;2023-11-21T12:17:57;8.50;99.90
6948;DHT22;3513;47.664;9.162;2023-11-21T12:20:26;8.60;99.90
6948;DHT22;3513;47.664;9.162;2023-11-21T12:22:57;8.60;99.90
6948;DHT22;3513;47.664;9.162;2023-11-21T12:25:27;8.60;99.90
6948;DHT22;3513;47.664;9.162;2023-11-21T12:27:58;8.70;99.90
6948;DHT22;3513;47.664;9.162;2023-11-21T12:30:34;8.80;99.90
6948;DHT22;3513;47.664;9.162;2023-11-21T12:33:04;8.90;99.90
6948;DHT22;3513;47.664;9.162;2023-11-21T12:35:34;8.90;99.90
6948;DHT22;3513;47.664;9.162;2023-11-21T12:38:01;9.00;99.90
6948;DHT22;3513;47.664;9.162;2023-11-21T12:40:30;8.80;99.90
6948;DHT22;3513;47.664;9.162;2023-11-21T12:42:58;8.80;99.90
6948;DHT22;3513;47.664;9.162;2023-11-21T12:45:28;8.90;99.90
6948;DHT22;3513;47.664;9.162;2023-11-21T12:47:57;9.00;99.90
6948;DHT22;3513;47.664;9.162;2023-11-21T12:50:26;9.10;99.90
6948;DHT22;3513;47.664;9.162;2023-11-21T12:53:04;9.20;99.90
6948;DHT22;3513;47.664;9.162;2023-11-21T12:55:32;9.40;99.90
6948;DHT22;3513;47.664;9.162;2023-11-21T12:57:57;9.60;99.90
6948;DHT22;3513;47.664;9.162;2023-11-21T13:00:38;9.70;99.90
6948;DHT22;3513;47.664;9.162;2023-11-21T13:03:07;10.00;99.90
6948;DHT22;3513;47.664;9.162;2023-11-21T13:05:35;10.50;99.90
6948;DHT22;3513;47.664;9.162;2023-11-21T13:08:05;11.10;99.90
6948;DHT22;3513;47.664;9.162;2023-11-21T13:10:34;11.40;99.90
6948;DHT22;3513;47.664;9.162;2023-11-21T13:13:07;11.60;96.90
6948;DHT22;3513;47.664;9.162;2023-11-21T13:15:35;11.90;99.90
6948;DHT22;3513;47.664;9.162;2023-11-21T13:18:03;12.40;97.30
6948;DHT22;3513;47.664;9.162;2023-11-21T13:20:29;12.90;96.00
6948;DHT22;3513;47.664;9.162;2023-11-21T13:22:58;13.30;94.50
6948;DHT22;3513;47.664;9.162;2023-11-21T13:25:28;13.60;95.00
6948;DHT22;3513;47.664;9.162;2023-11-21T13:27:54;14.20;94.50
6948;DHT22;3513;47.664;9.162;2023-11-21T13:30:22;14.80;92.60
6948;DHT22;3513;47.664;9.162;2023-11-21T13:32:55;15.10;90.60
6948;DHT22;3513;47.664;9.162;2023-11-21T13:35:28;15.00;89.20
6948;DHT22;3513;47.664;9.162;2023-11-21T13:38:04;14.60;89.00
6948;DHT22;3513;47.664;9.162;2023-11-21T13:40:31;14.20;90.40
6948;DHT22;3513;47.664;9.162;2023-11-21T13:42:56;13.50;90.40
6948;DHT22;3513;47.664;9.162;2023-11-21T13:45:27;13.00;92.10
6948;DHT22;3513;47.664;9.162;2023-11-21T13:47:54;12.70;92.00
6948;DHT22;3513;47.664;9.162;2023-11-21T13:50:25;12.60;92.70
6948;DHT22;3513;47.664;9.162;2023-11-21T13:52:58;12.40;93.20
6948;DHT22;3513;47.664;9.162;2023-11-21T13:55:26;12.10;93.50
6948;DHT22;3513;47.664;9.162;2023-11-21T13:57:52;11.80;94.80
6948;DHT22;3513;47.664;9.162;2023-11-21T14:00:18;11.60;95.30
6948;DHT22;3513;47.664;9.162;2023-11-21T14:03:09;11.40;95.50
6948;DHT22;3513;47.664;9.162;2023-11-21T14:05:44;11.20;96.40
6948;DHT22;3513;47.664;9.162;2023-11-21T14:08:11;11.10;97.20
6948;DHT22;3513;47.664;9.162;2023-11-21T14:10:42;10.90;97.90
6948;DHT22;3513;47.664;9.162;2023-11-21T14:13:16;10.80;97.90
6948;DHT22;3513;47.664;9.162;2023-11-21T14:15:42;10.80;98.50
6948;DHT22;3513;47.664;9.162;2023-11-21T14:18:09;10.50;98.90
6948;DHT22;3513;47.664;9.162;2023-11-21T14:20:40;10.20;99.90
6948;DHT22;3513;47.664;9.162;2023-11-21T14:23:06;10.40;99.90
6948;DHT22;3513;47.664;9.162;2023-11-21T14:25:35;9.70;99.90
6948;DHT22;3513;47.664;9.162;2023-11-21T14:28:07;9.60;99.90
6948;DHT22;3513;47.664;9.162;2023-11-21T14:30:33;9.60;99.90
6948;DHT22;3513;47.664;9.162;2023-11-21T14:33:02;9.60;99.90
6948;DHT22;3513;47.664;9.162;2023-11-21T14:35:27;9.70;99.90
6948;DHT22;3513;47.664;9.162;2023-11-21T14:37:55;9.60;99.90
6948;DHT22;3513;47.664;9.162;2023-11-21T14:40:22;9.60;99.90
6948;DHT22;3513;47.664;9.162;2023-11-21T14:42:50;9.60;99.90
6948;DHT22;3513;47.664;9.162;2023-11-21T14:45:18;9.00;99.90
6948;DHT22;3513;47.664;9.162;2023-11-21T14:47:45;9.60;99.90
6948;DHT22;3513;47.664;9.162;2023-11-21T14:50:17;9.50;99.90
6948;DHT22;3513;47.664;9.162;2023-11-21T14:53:12;9.40;99.90
6948;DHT22;3513;47.664;9.162;2023-11-21T14:55:39;9.40;99.90
6948;DHT22;3513;47.664;9.162;2023-11-21T14:58:20;9.40;99.90
6948;DHT22;3513;47.664;9.162;2023-11-21T15:00:56;9.40;99.90
6948;DHT22;3513;47.664;9.162;2023-11-21T15:03:26;9.40;99.90
6948;DHT22;3513;47.664;9.162;2023-11-21T15:06:12;9.40;99.90
6948;DHT22;3513;47.664;9.162;2023-11-21T15:08:58;9.30;99.90
6948;DHT22;3513;47.664;9.162;2023-11-21T15:11:32;9.30;99.90
6948;DHT22;3513;47.664;9.162;2023-11-21T15:13:58;9.20;99.90
6948;DHT22;3513;47.664;9.162;2023-11-21T15:16:24;9.20;99.90
6948;DHT22;3513;47.664;9.162;2023-11-21T15:18:52;9.20;99.90
6948;DHT22;3513;47.664;9.162;2023-11-21T15:21:19;9.20;99.90
6948;DHT22;3513;47.664;9.162;2023-11-21T15:23:46;9.20;99.90
6948;DHT22;3513;47.664;9.162;2023-11-21T15:26:12;9.20;99.90
6948;DHT22;3513;47.664;9.162;2023-11-21T15:28:38;9.10;99.90
6948;DHT22;3513;47.664;9.162;2023-11-21T15:31:04;9.20;99.90
6948;DHT22;3513;47.664;9.162;2023-11-21T15:33:30;9.10;99.90
6948;DHT22;3513;47.664;9.162;2023-11-21T15:35:56;9.10;99.90
6948;DHT22;3513;47.664;9.162;2023-11-21T15:38:22;9.10;99.90
6948;DHT22;3513;47.664;9.162;2023-11-21T15:40:49;9.00;99.90
6948;DHT22;3513;47.664;9.162;2023-11-21T15:43:15;9.00;99.90
6948;DHT22;3513;47.664;9.162;2023-11-21T15:45:41;9.00;99.90
6948;DHT22;3513;47.664;9.162;2023-11-21T15:48:06;9.00;99.90
6948;DHT22;3513;47.664;9.162;2023-11-21T15:50:32;9.00;99.90
6948;DHT22;3513;47.664;9.162;2023-11-21T15:52:58;8.90;99.90
6948;DHT22;3513;47.664;9.162;2023-11-21T15:55:24;8.90;99.90
6948;DHT22;3513;47.664;9.162;2023-11-21T15:57:50;8.90;99.90
6948;DHT22;3513;47.664;9.162;2023-11-21T16:00:16;9.00;99.90
6948;DHT22;3513;47.664;9.162;2023-11-21T16:02:45;9.00;99.90
6948;DHT22;3513;47.664;9.162;2023-11-21T16:05:11;9.00;99.90
6948;DHT22;3513;47.664;9.162;2023-11-21T16:07:40;9.00;99.90
6948;DHT22;3513;47.664;9.162;2023-11-21T16:10:10;9.10;99.90
6948;DHT22;3513;47.664;9.162;2023-11-21T16:12:37;9.10;99.90
6948;DHT22;3513;47.664;9.162;2023-11-21T16:15:05;9.10;99.90
6948;DHT22;3513;47.664;9.162;2023-11-21T16:17:34;9.20;99.90
6948;DHT22;3513;47.664;9.162;2023-11-21T16:20:01;9.00;99.90
6948;DHT22;3513;47.664;9.162;2023-11-21T16:22:31;9.00;99.90
6948;DHT22;3513;47.664;9.162;2023-11-21T16:24:59;8.90;99.90
6948;DHT22;3513;47.664;9.162;2023-11-21T16:27:25;8.80;99.90
6948;DHT22;3513;47.664;9.162;2023-11-21T16:29:51;8.70;99.90